sensor_id;sensor_type;location;lat;lon;timestamp;pressure;altitude;pressure_sealevel;temperature;humidity
6464;BME280;3265;42.694;23.282;2023-02-04T00:01:52;94409.47;;;2.71;96.52
6464;BME280;3265;42.694;23.282;2023-02-04T00:04:19;94411.41;;;2.69;97.05
6464;BME280;3265;42.694;23.282;2023-02-04T00:06:47;94383.28;;;2.61;97.98
6464;BME280;3265;42.694;23.282;2023-02-04T00:09:14;94408.13;;;2.75;98.16
6464;BME280;3265;42.694;23.282;2023-02-04T00:11:41;94384.59;;;2.57;98.78
6464;BME280;3265;42.694;23.282;2023-02-04T00:14:09;94389.53;;;2.58;99.42
6464;BME280;3265;42.694;23.282;2023-02-04T00:16:36;94379.66;;;2.70;99.21
6464;BME280;3265;42.694;23.282;2023-02-04T00:19:03;94393.53;;;2.75;99.68
6464;BME280;3265;42.694;23.282;2023-02-04T00:21:30;94375.47;;;2.40;100.00
6464;BME280;3265;42.694;23.282;2023-02-04T00:23:58;94390.97;;;2.61;100.00
6464;BME280;3265;42.694;23.282;2023-02-04T00:26:25;94383.72;;;2.64;100.00
6464;BME280;3265;42.694;23.282;2023-02-04T00:28:52;94372.06;;;2.62;100.00
6464;BME280;3265;42.694;23.282;2023-02-04T00:31:19;94379.19;;;2.52;100.00
6464;BME280;3265;42.694;23.282;2023-02-04T00:33:46;94367.75;;;2.40;100.00
6464;BME280;3265;42.694;23.282;2023-02-04T00:36:13;94372.84;;;2.48;100.00
6464;BME280;3265;42.694;23.282;2023-02-04T00:38:39;94352.75;;;2.51;100.00
6464;BME280;3265;42.694;23.282;2023-02-04T00:41:08;94358.66;;;2.37;100.00
6464;BME280;3265;42.694;23.282;2023-02-04T00:43:34;94352.00;;;2.28;100.00
6464;BME280;3265;42.694;23.282;2023-02-04T00:46:01;94354.31;;;2.23;100.00
6464;BME280;3265;42.694;23.282;2023-02-04T00:48:28;94337.09;;;2.32;99.05
6464;BME280;3265;42.694;23.282;2023-02-04T00:50:55;94353.19;;;2.40;99.23
6464;BME280;3265;42.694;23.282;2023-02-04T00:53:22;94355.25;;;2.45;98.66
6464;BME280;3265;42.694;23.282;2023-02-04T00:55:51;94337.56;;;2.64;95.22
6464;BME280;3265;42.694;23.282;2023-02-04T00:58:20;94329.16;;;2.56;94.98
6464;BME280;3265;42.694;23.282;2023-02-04T01:00:46;94335.34;;;2.61;94.94
6464;BME280;3265;42.694;23.282;2023-02-04T01:03:13;94336.41;;;2.81;91.84
6464;BME280;3265;42.694;23.282;2023-02-04T01:05:40;94337.88;;;2.91;90.79
6464;BME280;3265;42.694;23.282;2023-02-04T01:08:07;94337.19;;;2.97;89.60
6464;BME280;3265;42.694;23.282;2023-02-04T01:10:34;94326.25;;;3.09;88.60
6464;BME280;3265;42.694;23.282;2023-02-04T01:13:00;94313.34;;;3.17;87.95
6464;BME280;3265;42.694;23.282;2023-02-04T01:15:29;94328.75;;;3.17;88.03
6464;BME280;3265;42.694;23.282;2023-02-04T01:17:56;94322.13;;;3.29;87.55
6464;BME280;3265;42.694;23.282;2023-02-04T01:20:22;94319.84;;;3.34;86.83
6464;BME280;3265;42.694;23.282;2023-02-04T01:22:49;94308.63;;;3.42;87.52
6464;BME280;3265;42.694;23.282;2023-02-04T01:25:16;94309.47;;;3.28;91.61
6464;BME280;3265;42.694;23.282;2023-02-04T01:27:44;94287.66;;;3.17;93.13
6464;BME280;3265;42.694;23.282;2023-02-04T01:30:12;94288.03;;;3.14;89.48
6464;BME280;3265;42.694;23.282;2023-02-04T01:32:40;94297.97;;;3.24;88.89
6464;BME280;3265;42.694;23.282;2023-02-04T01:35:08;94278.97;;;3.18;90.32
6464;BME280;3265;42.694;23.282;2023-02-04T01:37:35;94292.78;;;3.17;91.96
6464;BME280;3265;42.694;23.282;2023-02-04T01:40:02;94294.25;;;3.26;92.46
6464;BME280;3265;42.694;23.282;2023-02-04T01:42:29;94282.56;;;3.24;92.92
6464;BME280;3265;42.694;23.282;2023-02-04T01:44:56;94270.81;;;3.15;94.73
6464;BME280;3265;42.694;23.282;2023-02-04T01:47:23;94276.16;;;3.13;95.33
6464;BME280;3265;42.694;23.282;2023-02-04T01:49:52;94280.59;;;3.05;96.30
6464;BME280;3265;42.694;23.282;2023-02-04T01:52:20;94257.09;;;2.86;96.45
6464;BME280;3265;42.694;23.282;2023-02-04T01:54:48;94274.84;;;2.67;98.35
6464;BME280;3265;42.694;23.282;2023-02-04T01:57:15;94262.72;;;2.75;97.94
6464;BME280;3265;42.694;23.282;2023-02-04T01:59:43;94244.75;;;2.75;98.54
6464;BME280;3265;42.694;23.282;2023-02-04T02:02:38;94239.66;;;2.61;98.71
6464;BME280;3265;42.694;23.282;2023-02-04T02:05:08;94255.22;;;2.74;98.91
6464;BME280;3265;42.694;23.282;2023-02-04T02:07:36;94254.09;;;2.83;98.77
6464;BME280;3265;42.694;23.282;2023-02-04T02:10:04;94253.16;;;2.69;99.67
6464;BME280;3265;42.694;23.282;2023-02-04T02:12:31;94255.66;;;2.63;99.80
6464;BME280;3265;42.694;23.282;2023-02-04T02:14:59;94238.25;;;2.44;100.00
6464;BME280;3265;42.694;23.282;2023-02-04T02:17:26;94237.78;;;2.55;100.00
6464;BME280;3265;42.694;23.282;2023-02-04T02:19:53;94233.38;;;2.49;100.00
6464;BME280;3265;42.694;23.282;2023-02-04T02:22:24;94238.25;;;2.58;100.00
6464;BME280;3265;42.694;23.282;2023-02-04T02:24:55;94253.03;;;2.56;100.00
6464;BME280;3265;42.694;23.282;2023-02-04T02:27:22;94229.66;;;2.51;100.00
6464;BME280;3265;42.694;23.282;2023-02-04T02:29:49;94216.13;;;2.57;100.00
6464;BME280;3265;42.694;23.282;2023-02-04T02:32:17;94204.09;;;2.58;100.00
6464;BME280;3265;42.694;23.282;2023-02-04T02:34:45;94203.25;;;2.51;100.00
6464;BME280;3265;42.694;23.282;2023-02-04T02:37:12;94201.94;;;2.40;100.00
6464;BME280;3265;42.694;23.282;2023-02-04T02:39:41;94173.91;;;2.39;100.00
6464;BME280;3265;42.694;23.282;2023-02-04T02:42:14;94174.44;;;2.34;100.00
6464;BME280;3265;42.694;23.282;2023-02-04T02:44:43;94175.94;;;2.28;100.00
6464;BME280;3265;42.694;23.282;2023-02-04T02:47:12;94175.88;;;2.37;100.00
6464;BME280;3265;42.694;23.282;2023-02-04T02:49:40;94177.72;;;2.28;100.00
6464;BME280;3265;42.694;23.282;2023-02-04T02:52:10;94164.50;;;2.24;100.00
6464;BME280;3265;42.694;23.282;2023-02-04T02:54:37;94159.13;;;2.41;100.00
6464;BME280;3265;42.694;23.282;2023-02-04T02:57:12;94146.16;;;2.42;100.00
6464;BME280;3265;42.694;23.282;2023-02-04T02:59:39;94150.19;;;2.51;100.00
6464;BME280;3265;42.694;23.282;2023-02-04T03:02:08;94152.66;;;2.59;100.00
6464;BME280;3265;42.694;23.282;2023-02-04T03:04:38;94153.56;;;2.73;94.36
6464;BME280;3265;42.694;23.282;2023-02-04T03:07:06;94160.13;;;2.97;93.12
6464;BME280;3265;42.694;23.282;2023-02-04T03:09:33;94156.63;;;3.04;94.62
6464;BME280;3265;42.694;23.282;2023-02-04T03:12:01;94163.03;;;3.15;94.18
6464;BME280;3265;42.694;23.282;2023-02-04T03:14:29;94169.03;;;3.22;93.49
6464;BME280;3265;42.694;23.282;2023-02-04T03:16:56;94175.81;;;3.08;95.66
6464;BME280;3265;42.694;23.282;2023-02-04T03:19:24;94162.72;;;3.03;96.85
6464;BME280;3265;42.694;23.282;2023-02-04T03:21:51;94164.88;;;3.00;97.59
6464;BME280;3265;42.694;23.282;2023-02-04T03:24:19;94159.91;;;2.98;97.48
6464;BME280;3265;42.694;23.282;2023-02-04T03:26:45;94154.97;;;2.75;98.25
6464;BME280;3265;42.694;23.282;2023-02-04T03:29:13;94155.78;;;2.76;98.82
6464;BME280;3265;42.694;23.282;2023-02-04T03:31:41;94153.00;;;2.56;98.90
6464;BME280;3265;42.694;23.282;2023-02-04T03:34:08;94154.69;;;2.49;100.00
6464;BME280;3265;42.694;23.282;2023-02-04T03:36:34;94160.44;;;2.51;99.49
6464;BME280;3265;42.694;23.282;2023-02-04T03:39:02;94166.31;;;2.45;99.68
6464;BME280;3265;42.694;23.282;2023-02-04T03:41:29;94146.69;;;2.38;100.00
6464;BME280;3265;42.694;23.282;2023-02-04T03:43:56;94152.97;;;2.35;100.00
6464;BME280;3265;42.694;23.282;2023-02-04T03:46:23;94140.97;;;2.21;100.00
6464;BME280;3265;42.694;23.282;2023-02-04T03:48:51;94134.56;;;2.10;100.00
6464;BME280;3265;42.694;23.282;2023-02-04T03:51:18;94146.69;;;1.87;100.00
6464;BME280;3265;42.694;23.282;2023-02-04T03:53:45;94125.13;;;1.82;100.00
6464;BME280;3265;42.694;23.282;2023-02-04T03:56:12;94130.25;;;1.96;100.00
6464;BME280;3265;42.694;23.282;2023-02-04T03:58:39;94120.94;;;2.10;100.00
6464;BME280;3265;42.694;23.282;2023-02-04T04:01:05;94122.34;;;2.12;100.00
6464;BME280;3265;42.694;23.282;2023-02-04T04:03:32;94116.94;;;2.22;100.00
6464;BME280;3265;42.694;23.282;2023-02-04T04:06:00;94113.41;;;2.23;100.00
6464;BME280;3265;42.694;23.282;2023-02-04T04:08:30;94092.97;;;2.29;100.00
6464;BME280;3265;42.694;23.282;2023-02-04T04:10:57;94096.22;;;2.38;100.00
6464;BME280;3265;42.694;23.282;2023-02-04T04:13:24;94088.59;;;2.45;100.00
6464;BME280;3265;42.694;23.282;2023-02-04T04:15:51;94091.31;;;2.43;100.00
6464;BME280;3265;42.694;23.282;2023-02-04T04:18:17;94098.28;;;2.49;100.00
6464;BME280;3265;42.694;23.282;2023-02-04T04:20:44;94081.75;;;2.52;100.00
6464;BME280;3265;42.694;23.282;2023-02-04T04:23:12;94089.81;;;2.49;100.00
6464;BME280;3265;42.694;23.282;2023-02-04T04:25:39;94081.56;;;2.53;100.00
6464;BME280;3265;42.694;23.282;2023-02-04T04:28:06;94096.47;;;2.64;100.00
6464;BME280;3265;42.694;23.282;2023-02-04T04:30:33;94104.59;;;2.68;100.00
6464;BME280;3265;42.694;23.282;2023-02-04T04:32:59;94106.84;;;2.77;99.05
6464;BME280;3265;42.694;23.282;2023-02-04T04:35:26;94106.75;;;2.85;97.95
6464;BME280;3265;42.694;23.282;2023-02-04T04:37:53;94108.34;;;3.14;94.96
6464;BME280;3265;42.694;23.282;2023-02-04T04:40:21;94111.28;;;3.39;93.97
6464;BME280;3265;42.694;23.282;2023-02-04T04:42:48;94110.84;;;3.63;92.69
6464;BME280;3265;42.694;23.282;2023-02-04T04:45:15;94117.97;;;3.68;91.02
6464;BME280;3265;42.694;23.282;2023-02-04T04:47:42;94128.56;;;3.86;91.37
6464;BME280;3265;42.694;23.282;2023-02-04T04:50:09;94122.63;;;3.85;91.11
6464;BME280;3265;42.694;23.282;2023-02-04T04:52:36;94119.09;;;3.86;91.36
6464;BME280;3265;42.694;23.282;2023-02-04T04:55:08;94107.59;;;3.82;90.81
6464;BME280;3265;42.694;23.282;2023-02-04T04:57:54;94065.75;;;3.54;92.12
6464;BME280;3265;42.694;23.282;2023-02-04T05:00:27;94117.28;;;3.87;92.29
6464;BME280;3265;42.694;23.282;2023-02-04T05:02:54;94125.56;;;3.82;94.87
6464;BME280;3265;42.694;23.282;2023-02-04T05:05:20;94134.47;;;3.80;95.88
6464;BME280;3265;42.694;23.282;2023-02-04T05:07:47;94120.59;;;3.74;96.10
6464;BME280;3265;42.694;23.282;2023-02-04T05:10:15;94131.47;;;3.76;96.99
6464;BME280;3265;42.694;23.282;2023-02-04T05:12:42;94118.81;;;3.75;97.20
6464;BME280;3265;42.694;23.282;2023-02-04T05:15:10;94147.84;;;3.69;98.38
6464;BME280;3265;42.694;23.282;2023-02-04T05:17:37;94128.31;;;3.47;98.72
6464;BME280;3265;42.694;23.282;2023-02-04T05:20:04;94154.03;;;3.53;99.77
6464;BME280;3265;42.694;23.282;2023-02-04T05:22:31;94143.91;;;3.17;100.00
6464;BME280;3265;42.694;23.282;2023-02-04T05:24:58;94167.84;;;3.24;100.00
6464;BME280;3265;42.694;23.282;2023-02-04T05:27:25;94175.13;;;3.21;100.00
6464;BME280;3265;42.694;23.282;2023-02-04T05:29:52;94171.88;;;3.12;100.00
6464;BME280;3265;42.694;23.282;2023-02-04T05:32:20;94180.59;;;3.11;100.00
6464;BME280;3265;42.694;23.282;2023-02-04T05:34:47;94199.09;;;3.07;100.00
6464;BME280;3265;42.694;23.282;2023-02-04T05:37:13;94203.91;;;3.16;100.00
6464;BME280;3265;42.694;23.282;2023-02-04T05:39:41;94189.50;;;3.15;100.00
6464;BME280;3265;42.694;23.282;2023-02-04T05:42:08;94189.31;;;3.17;100.00
6464;BME280;3265;42.694;23.282;2023-02-04T05:44:35;94191.31;;;3.00;100.00
6464;BME280;3265;42.694;23.282;2023-02-04T05:47:02;94206.78;;;3.07;100.00
6464;BME280;3265;42.694;23.282;2023-02-04T05:49:30;94197.16;;;3.09;100.00
6464;BME280;3265;42.694;23.282;2023-02-04T05:52:00;94198.47;;;3.05;100.00
6464;BME280;3265;42.694;23.282;2023-02-04T05:54:29;94169.81;;;3.01;100.00
6464;BME280;3265;42.694;23.282;2023-02-04T05:56:56;94170.78;;;3.00;100.00
6464;BME280;3265;42.694;23.282;2023-02-04T05:59:23;94157.41;;;3.05;100.00
6464;BME280;3265;42.694;23.282;2023-02-04T06:01:50;94147.09;;;2.98;100.00
6464;BME280;3265;42.694;23.282;2023-02-04T06:04:17;94159.91;;;2.98;100.00
6464;BME280;3265;42.694;23.282;2023-02-04T06:06:45;94126.59;;;2.77;99.07
6464;BME280;3265;42.694;23.282;2023-02-04T06:09:12;94147.81;;;2.92;99.07
6464;BME280;3265;42.694;23.282;2023-02-04T06:11:39;94160.78;;;3.05;98.53
6464;BME280;3265;42.694;23.282;2023-02-04T06:14:05;94176.72;;;3.01;98.15
6464;BME280;3265;42.694;23.282;2023-02-04T06:16:32;94176.78;;;3.07;97.79
6464;BME280;3265;42.694;23.282;2023-02-04T06:18:59;94170.13;;;3.13;97.34
6464;BME280;3265;42.694;23.282;2023-02-04T06:21:26;94185.22;;;3.22;96.30
6464;BME280;3265;42.694;23.282;2023-02-04T06:23:54;94192.00;;;3.30;94.84
6464;BME280;3265;42.694;23.282;2023-02-04T06:26:21;94184.47;;;3.28;95.39
6464;BME280;3265;42.694;23.282;2023-02-04T06:28:47;94198.16;;;3.35;95.02
6464;BME280;3265;42.694;23.282;2023-02-04T06:31:14;94194.03;;;3.34;95.11
6464;BME280;3265;42.694;23.282;2023-02-04T06:33:41;94196.75;;;3.33;95.11
6464;BME280;3265;42.694;23.282;2023-02-04T06:36:08;94201.16;;;3.39;94.15
6464;BME280;3265;42.694;23.282;2023-02-04T06:38:35;94195.88;;;3.47;93.13
6464;BME280;3265;42.694;23.282;2023-02-04T06:41:03;94213.50;;;3.50;92.59
6464;BME280;3265;42.694;23.282;2023-02-04T06:43:30;94205.25;;;3.55;92.89
6464;BME280;3265;42.694;23.282;2023-02-04T06:45:56;94200.69;;;3.57;92.03
6464;BME280;3265;42.694;23.282;2023-02-04T06:48:23;94207.44;;;3.58;91.97
6464;BME280;3265;42.694;23.282;2023-02-04T06:50:50;94193.88;;;3.70;90.70
6464;BME280;3265;42.694;23.282;2023-02-04T06:53:17;94205.81;;;3.78;89.89
6464;BME280;3265;42.694;23.282;2023-02-04T06:55:44;94201.69;;;3.83;89.04
6464;BME280;3265;42.694;23.282;2023-02-04T06:58:12;94207.84;;;3.89;89.16
6464;BME280;3265;42.694;23.282;2023-02-04T07:00:39;94202.72;;;3.89;88.90
6464;BME280;3265;42.694;23.282;2023-02-04T07:03:05;94200.97;;;3.96;89.05
6464;BME280;3265;42.694;23.282;2023-02-04T07:05:32;94210.28;;;3.97;88.57
6464;BME280;3265;42.694;23.282;2023-02-04T07:07:59;94197.03;;;4.00;89.29
6464;BME280;3265;42.694;23.282;2023-02-04T07:10:26;94194.31;;;4.08;87.68
6464;BME280;3265;42.694;23.282;2023-02-04T07:12:53;94191.19;;;4.13;87.87
6464;BME280;3265;42.694;23.282;2023-02-04T07:15:21;94187.81;;;4.12;88.20
6464;BME280;3265;42.694;23.282;2023-02-04T07:17:48;94193.56;;;4.14;87.82
6464;BME280;3265;42.694;23.282;2023-02-04T07:20:15;94177.75;;;4.17;88.80
6464;BME280;3265;42.694;23.282;2023-02-04T07:22:41;94180.13;;;4.19;89.00
6464;BME280;3265;42.694;23.282;2023-02-04T07:25:09;94168.84;;;4.20;88.27
6464;BME280;3265;42.694;23.282;2023-02-04T07:27:35;94174.22;;;4.25;88.53
6464;BME280;3265;42.694;23.282;2023-02-04T07:30:02;94169.13;;;4.31;87.66
6464;BME280;3265;42.694;23.282;2023-02-04T07:32:31;94162.38;;;4.30;87.63
6464;BME280;3265;42.694;23.282;2023-02-04T07:34:58;94161.84;;;4.41;87.39
6464;BME280;3265;42.694;23.282;2023-02-04T07:37:33;94176.09;;;4.50;86.41
6464;BME280;3265;42.694;23.282;2023-02-04T07:40:05;94174.78;;;4.61;86.62
6464;BME280;3265;42.694;23.282;2023-02-04T07:42:32;94169.06;;;4.72;85.17
6464;BME280;3265;42.694;23.282;2023-02-04T07:44:58;94166.66;;;4.71;85.57
6464;BME280;3265;42.694;23.282;2023-02-04T07:47:25;94175.00;;;4.73;85.07
6464;BME280;3265;42.694;23.282;2023-02-04T07:49:53;94157.78;;;4.80;84.65
6464;BME280;3265;42.694;23.282;2023-02-04T07:52:21;94160.97;;;4.82;84.36
6464;BME280;3265;42.694;23.282;2023-02-04T07:54:48;94172.25;;;4.81;83.72
6464;BME280;3265;42.694;23.282;2023-02-04T07:57:16;94176.41;;;4.75;84.95
6464;BME280;3265;42.694;23.282;2023-02-04T07:59:43;94178.16;;;4.68;84.21
6464;BME280;3265;42.694;23.282;2023-02-04T08:02:10;94173.22;;;4.67;84.23
6464;BME280;3265;42.694;23.282;2023-02-04T08:04:37;94177.75;;;4.65;85.58
6464;BME280;3265;42.694;23.282;2023-02-04T08:07:06;94166.22;;;4.54;86.45
6464;BME280;3265;42.694;23.282;2023-02-04T08:09:32;94165.28;;;4.62;86.48
6464;BME280;3265;42.694;23.282;2023-02-04T08:11:59;94168.41;;;4.57;86.51
6464;BME280;3265;42.694;23.282;2023-02-04T08:14:26;94166.44;;;4.52;87.01
6464;BME280;3265;42.694;23.282;2023-02-04T08:16:53;94165.25;;;4.55;87.59
6464;BME280;3265;42.694;23.282;2023-02-04T08:19:20;94182.03;;;4.51;86.70
6464;BME280;3265;42.694;23.282;2023-02-04T08:21:47;94178.47;;;4.45;87.55
6464;BME280;3265;42.694;23.282;2023-02-04T08:24:15;94173.47;;;4.31;88.03
6464;BME280;3265;42.694;23.282;2023-02-04T08:26:43;94169.50;;;4.28;88.77
6464;BME280;3265;42.694;23.282;2023-02-04T08:29:10;94170.88;;;4.31;88.55
6464;BME280;3265;42.694;23.282;2023-02-04T08:31:37;94161.56;;;4.23;88.61
6464;BME280;3265;42.694;23.282;2023-02-04T08:34:05;94160.22;;;4.34;88.01
6464;BME280;3265;42.694;23.282;2023-02-04T08:36:32;94120.91;;;3.99;87.92
6464;BME280;3265;42.694;23.282;2023-02-04T08:38:58;94155.09;;;4.40;88.01
6464;BME280;3265;42.694;23.282;2023-02-04T08:41:26;94165.59;;;4.45;87.14
6464;BME280;3265;42.694;23.282;2023-02-04T08:43:53;94164.81;;;4.38;88.40
6464;BME280;3265;42.694;23.282;2023-02-04T08:46:20;94163.59;;;4.34;89.82
6464;BME280;3265;42.694;23.282;2023-02-04T08:48:47;94160.59;;;4.31;89.80
6464;BME280;3265;42.694;23.282;2023-02-04T08:51:14;94162.38;;;4.30;91.41
6464;BME280;3265;42.694;23.282;2023-02-04T08:53:41;94157.00;;;4.25;91.30
6464;BME280;3265;42.694;23.282;2023-02-04T08:56:08;94142.34;;;4.19;91.57
6464;BME280;3265;42.694;23.282;2023-02-04T08:58:41;94151.63;;;4.14;93.29
6464;BME280;3265;42.694;23.282;2023-02-04T09:01:08;94145.47;;;4.08;93.42
6464;BME280;3265;42.694;23.282;2023-02-04T09:03:35;94147.44;;;4.06;93.17
6464;BME280;3265;42.694;23.282;2023-02-04T09:06:03;94139.78;;;4.13;92.92
6464;BME280;3265;42.694;23.282;2023-02-04T09:08:30;94141.75;;;4.17;91.86
6464;BME280;3265;42.694;23.282;2023-02-04T09:10:56;94138.22;;;4.25;91.65
6464;BME280;3265;42.694;23.282;2023-02-04T09:13:23;94129.94;;;4.29;91.32
6464;BME280;3265;42.694;23.282;2023-02-04T09:15:52;94140.81;;;4.31;90.42
6464;BME280;3265;42.694;23.282;2023-02-04T09:18:19;94123.22;;;4.28;90.11
6464;BME280;3265;42.694;23.282;2023-02-04T09:20:46;94123.84;;;4.43;89.08
6464;BME280;3265;42.694;23.282;2023-02-04T09:23:14;94133.56;;;4.41;90.00
6464;BME280;3265;42.694;23.282;2023-02-04T09:25:42;94130.19;;;4.47;89.53
6464;BME280;3265;42.694;23.282;2023-02-04T09:28:10;94138.72;;;4.54;88.05
6464;BME280;3265;42.694;23.282;2023-02-04T09:30:38;94140.09;;;4.50;89.10
6464;BME280;3265;42.694;23.282;2023-02-04T09:33:06;94137.69;;;4.42;90.45
6464;BME280;3265;42.694;23.282;2023-02-04T09:35:33;94129.75;;;4.31;92.17
6464;BME280;3265;42.694;23.282;2023-02-04T09:38:00;94128.75;;;4.32;92.78
6464;BME280;3265;42.694;23.282;2023-02-04T09:40:28;94143.22;;;4.39;93.00
6464;BME280;3265;42.694;23.282;2023-02-04T09:42:57;94143.56;;;4.23;93.65
6464;BME280;3265;42.694;23.282;2023-02-04T09:45:26;94129.31;;;4.27;95.24
6464;BME280;3265;42.694;23.282;2023-02-04T09:47:54;94134.09;;;4.30;95.59
6464;BME280;3265;42.694;23.282;2023-02-04T09:50:25;94130.50;;;4.18;95.83
6464;BME280;3265;42.694;23.282;2023-02-04T09:52:54;94125.16;;;4.20;97.04
6464;BME280;3265;42.694;23.282;2023-02-04T09:55:27;94119.84;;;4.28;97.09
6464;BME280;3265;42.694;23.282;2023-02-04T09:57:55;94115.28;;;4.23;97.64
6464;BME280;3265;42.694;23.282;2023-02-04T10:00:27;94113.28;;;4.19;98.04
6464;BME280;3265;42.694;23.282;2023-02-04T10:03:02;94106.78;;;4.23;97.82
6464;BME280;3265;42.694;23.282;2023-02-04T10:05:32;94100.84;;;4.29;97.12
6464;BME280;3265;42.694;23.282;2023-02-04T10:08:03;94101.44;;;4.31;96.63
6464;BME280;3265;42.694;23.282;2023-02-04T10:10:30;94092.16;;;4.30;96.09
6464;BME280;3265;42.694;23.282;2023-02-04T10:12:59;94077.31;;;4.25;96.16
6464;BME280;3265;42.694;23.282;2023-02-04T10:15:28;94118.13;;;4.41;95.77
6464;BME280;3265;42.694;23.282;2023-02-04T10:17:58;94087.66;;;4.38;94.40
6464;BME280;3265;42.694;23.282;2023-02-04T10:20:27;94080.28;;;4.29;95.42
6464;BME280;3265;42.694;23.282;2023-02-04T10:22:55;94096.31;;;4.31;96.39
6464;BME280;3265;42.694;23.282;2023-02-04T10:25:23;94080.91;;;4.37;96.11
6464;BME280;3265;42.694;23.282;2023-02-04T10:27:52;94084.06;;;4.39;96.64
6464;BME280;3265;42.694;23.282;2023-02-04T10:30:21;94090.22;;;4.38;96.95
6464;BME280;3265;42.694;23.282;2023-02-04T10:32:49;94082.50;;;4.38;97.74
6464;BME280;3265;42.694;23.282;2023-02-04T10:35:18;94091.78;;;4.39;99.14
6464;BME280;3265;42.694;23.282;2023-02-04T10:37:45;94067.16;;;4.11;100.00
6464;BME280;3265;42.694;23.282;2023-02-04T10:40:29;94085.38;;;4.09;100.00
6464;BME280;3265;42.694;23.282;2023-02-04T10:42:56;94080.66;;;4.13;100.00
6464;BME280;3265;42.694;23.282;2023-02-04T10:45:25;94073.09;;;4.11;100.00
6464;BME280;3265;42.694;23.282;2023-02-04T10:47:53;94066.53;;;4.02;100.00
6464;BME280;3265;42.694;23.282;2023-02-04T10:50:22;94066.34;;;3.97;100.00
6464;BME280;3265;42.694;23.282;2023-02-04T10:52:51;94072.44;;;3.96;100.00
6464;BME280;3265;42.694;23.282;2023-02-04T10:55:21;94076.28;;;4.07;100.00
6464;BME280;3265;42.694;23.282;2023-02-04T10:57:51;94068.94;;;4.04;100.00
6464;BME280;3265;42.694;23.282;2023-02-04T11:00:19;94052.91;;;4.01;100.00
6464;BME280;3265;42.694;23.282;2023-02-04T11:02:56;94055.69;;;4.13;100.00
6464;BME280;3265;42.694;23.282;2023-02-04T11:05:28;94064.41;;;4.12;100.00
6464;BME280;3265;42.694;23.282;2023-02-04T11:07:55;94049.16;;;4.11;100.00
6464;BME280;3265;42.694;23.282;2023-02-04T11:10:27;94038.31;;;4.15;100.00
6464;BME280;3265;42.694;23.282;2023-02-04T11:13:04;94056.13;;;4.17;100.00
6464;BME280;3265;42.694;23.282;2023-02-04T11:15:40;94042.69;;;4.21;100.00
6464;BME280;3265;42.694;23.282;2023-02-04T11:18:10;94044.84;;;4.24;100.00
6464;BME280;3265;42.694;23.282;2023-02-04T11:20:38;94043.47;;;4.22;100.00
6464;BME280;3265;42.694;23.282;2023-02-04T11:23:28;94032.19;;;4.10;100.00
6464;BME280;3265;42.694;23.282;2023-02-04T11:26:17;94034.56;;;4.18;100.00
6464;BME280;3265;42.694;23.282;2023-02-04T11:29:25;94046.81;;;4.16;100.00
6464;BME280;3265;42.694;23.282;2023-02-04T11:32:02;94042.03;;;3.99;100.00
6464;BME280;3265;42.694;23.282;2023-02-04T11:34:42;94043.38;;;3.89;100.00
6464;BME280;3265;42.694;23.282;2023-02-04T11:37:34;94024.81;;;3.93;100.00
6464;BME280;3265;42.694;23.282;2023-02-04T11:40:19;94039.91;;;4.10;100.00
6464;BME280;3265;42.694;23.282;2023-02-04T11:42:47;94039.06;;;4.03;100.00
6464;BME280;3265;42.694;23.282;2023-02-04T11:45:19;94037.06;;;3.91;100.00
6464;BME280;3265;42.694;23.282;2023-02-04T11:47:46;94036.09;;;3.92;100.00
6464;BME280;3265;42.694;23.282;2023-02-04T11:50:18;94040.63;;;3.97;100.00
6464;BME280;3265;42.694;23.282;2023-02-04T11:52:46;94042.41;;;3.96;100.00
6464;BME280;3265;42.694;23.282;2023-02-04T11:55:13;94041.44;;;4.04;100.00
6464;BME280;3265;42.694;23.282;2023-02-04T11:57:41;94042.06;;;4.19;100.00
6464;BME280;3265;42.694;23.282;2023-02-04T12:00:13;94050.78;;;4.18;100.00
6464;BME280;3265;42.694;23.282;2023-02-04T12:02:43;94035.53;;;4.10;100.00
6464;BME280;3265;42.694;23.282;2023-02-04T12:05:13;94036.50;;;4.03;100.00
6464;BME280;3265;42.694;23.282;2023-02-04T12:07:40;94031.34;;;4.03;100.00
6464;BME280;3265;42.694;23.282;2023-02-04T12:10:13;94040.06;;;4.08;100.00
6464;BME280;3265;42.694;23.282;2023-02-04T12:12:42;94036.50;;;4.03;100.00
6464;BME280;3265;42.694;23.282;2023-02-04T12:15:15;94034.72;;;4.03;100.00
6464;BME280;3265;42.694;23.282;2023-02-04T12:17:45;94034.13;;;4.01;100.00
6464;BME280;3265;42.694;23.282;2023-02-04T12:20:12;94030.34;;;3.97;100.00
6464;BME280;3265;42.694;23.282;2023-02-04T12:22:39;94041.22;;;3.92;100.00
6464;BME280;3265;42.694;23.282;2023-02-04T12:25:07;94033.91;;;3.89;100.00
6464;BME280;3265;42.694;23.282;2023-02-04T12:27:34;94029.91;;;3.87;100.00
6464;BME280;3265;42.694;23.282;2023-02-04T12:30:00;94023.94;;;3.73;100.00
6464;BME280;3265;42.694;23.282;2023-02-04T12:32:27;94017.06;;;3.80;100.00
6464;BME280;3265;42.694;23.282;2023-02-04T12:34:55;94023.19;;;3.86;100.00
6464;BME280;3265;42.694;23.282;2023-02-04T12:37:22;94023.78;;;3.88;100.00
6464;BME280;3265;42.694;23.282;2023-02-04T12:39:49;94011.91;;;3.87;100.00
6464;BME280;3265;42.694;23.282;2023-02-04T12:42:16;94024.63;;;3.95;100.00
6464;BME280;3265;42.694;23.282;2023-02-04T12:44:45;94024.81;;;4.00;100.00
6464;BME280;3265;42.694;23.282;2023-02-04T12:47:14;94010.19;;;4.07;100.00
6464;BME280;3265;42.694;23.282;2023-02-04T12:49:41;94016.72;;;4.03;100.00
6464;BME280;3265;42.694;23.282;2023-02-04T12:52:09;94010.44;;;4.12;100.00
6464;BME280;3265;42.694;23.282;2023-02-04T12:54:36;94017.38;;;4.25;100.00
6464;BME280;3265;42.694;23.282;2023-02-04T12:57:05;94003.50;;;4.19;100.00
6464;BME280;3265;42.694;23.282;2023-02-04T12:59:32;94019.78;;;4.33;100.00
6464;BME280;3265;42.694;23.282;2023-02-04T13:01:59;94027.88;;;4.30;100.00
6464;BME280;3265;42.694;23.282;2023-02-04T13:04:26;94027.09;;;4.29;100.00
6464;BME280;3265;42.694;23.282;2023-02-04T13:06:53;94033.78;;;4.30;100.00
6464;BME280;3265;42.694;23.282;2023-02-04T13:09:23;94024.09;;;4.26;100.00
6464;BME280;3265;42.694;23.282;2023-02-04T13:11:58;94047.00;;;4.14;100.00
6464;BME280;3265;42.694;23.282;2023-02-04T13:14:25;94019.50;;;4.08;100.00
6464;BME280;3265;42.694;23.282;2023-02-04T13:16:58;94021.47;;;3.99;100.00
6464;BME280;3265;42.694;23.282;2023-02-04T13:19:25;94015.13;;;3.89;100.00
6464;BME280;3265;42.694;23.282;2023-02-04T13:21:52;94031.91;;;3.91;100.00
6464;BME280;3265;42.694;23.282;2023-02-04T13:24:18;94032.28;;;3.82;100.00